createdAt,value
2017-07-28T00:01:41.239Z,17.10
2017-07-28T00:04:11.742Z,17.00
2017-07-28T00:06:42.351Z,17.00
2017-07-28T00:09:10.167Z,17.00
2017-07-28T00:11:37.726Z,17.00
2017-07-28T00:14:05.230Z,17.00
2017-07-28T00:16:33.073Z,17.00
2017-07-28T00:19:00.567Z,17.00
2017-07-28T00:21:31.004Z,17.00
2017-07-28T00:23:58.501Z,16.90
2017-07-28T00:26:32.029Z,16.90
2017-07-28T00:29:00.855Z,16.90
2017-07-28T00:31:28.347Z,16.90
2017-07-28T00:33:56.104Z,16.80
2017-07-28T00:36:31.268Z,16.80
2017-07-28T00:38:59.043Z,16.70
2017-07-28T00:41:26.533Z,16.70
2017-07-28T00:44:00.884Z,16.70
2017-07-28T00:46:31.485Z,16.60
2017-07-28T00:48:59.962Z,16.60
2017-07-28T00:51:27.456Z,16.50
2017-07-28T00:53:54.951Z,16.50
2017-07-28T00:56:22.777Z,16.50
2017-07-28T00:58:50.322Z,16.50
2017-07-28T01:01:18.624Z,16.50
2017-07-28T01:03:46.124Z,16.40
2017-07-28T01:06:13.634Z,16.40
2017-07-28T01:08:51.850Z,16.40
2017-07-28T01:11:19.335Z,16.40
2017-07-28T01:13:53.003Z,16.40
2017-07-28T01:16:20.551Z,16.40
2017-07-28T01:18:52.692Z,16.40
2017-07-28T01:21:20.938Z,16.30
2017-07-28T01:23:51.598Z,16.30
2017-07-28T01:26:19.087Z,16.30
2017-07-28T01:28:50.877Z,16.30
2017-07-28T01:31:21.805Z,16.20
2017-07-28T01:33:52.270Z,16.30
2017-07-28T01:36:19.765Z,16.20
2017-07-28T01:38:47.271Z,16.30
2017-07-28T01:41:14.799Z,16.20
2017-07-28T01:43:42.551Z,16.20
2017-07-28T01:46:10.808Z,16.20
2017-07-28T01:48:38.302Z,16.10
2017-07-28T01:51:12.420Z,16.10
2017-07-28T01:53:41.260Z,16.10
2017-07-28T01:56:12.249Z,16.10
2017-07-28T01:58:39.809Z,16.10
2017-07-28T02:01:10.899Z,16.00
2017-07-28T02:03:38.508Z,15.90
2017-07-28T02:06:06.000Z,15.90
2017-07-28T02:08:33.839Z,15.90
2017-07-28T02:11:11.800Z,15.90
2017-07-28T02:13:39.608Z,15.80
2017-07-28T02:16:12.988Z,15.80
2017-07-28T02:18:51.705Z,15.80
2017-07-28T02:21:19.191Z,15.70
2017-07-28T02:23:52.868Z,15.70
2017-07-28T02:26:31.114Z,15.70
2017-07-28T02:28:58.874Z,15.60
2017-07-28T02:31:32.144Z,15.60
2017-07-28T02:34:01.248Z,15.50
2017-07-28T02:36:32.549Z,15.50
2017-07-28T02:39:00.026Z,15.60
2017-07-28T02:41:28.316Z,15.50
2017-07-28T02:43:55.877Z,15.40
2017-07-28T02:46:24.463Z,15.50
2017-07-28T02:49:02.308Z,15.40
2017-07-28T02:51:31.362Z,15.50
2017-07-28T02:53:59.639Z,15.50
2017-07-28T02:56:27.209Z,15.40
2017-07-28T02:58:54.754Z,15.50
2017-07-28T03:01:31.234Z,15.50
2017-07-28T03:03:59.093Z,15.40
2017-07-28T03:06:26.577Z,15.40
2017-07-28T03:09:01.062Z,15.40
2017-07-28T03:11:31.541Z,15.40
2017-07-28T03:14:02.452Z,15.30
2017-07-28T03:16:29.953Z,15.30
2017-07-28T03:19:01.156Z,15.30
2017-07-28T03:21:31.734Z,15.20
2017-07-28T03:23:59.260Z,15.20
2017-07-28T03:26:27.024Z,15.20
2017-07-28T03:28:54.507Z,15.20
2017-07-28T03:31:31.954Z,15.10
2017-07-28T03:33:59.446Z,15.10
2017-07-28T03:36:26.975Z,15.10
2017-07-28T03:38:54.533Z,15.10
2017-07-28T03:41:32.018Z,15.00
2017-07-28T03:44:00.279Z,15.00
2017-07-28T03:46:28.574Z,15.00
2017-07-28T03:48:56.330Z,15.00
2017-07-28T03:51:31.267Z,15.00
2017-07-28T03:53:59.850Z,15.00
2017-07-28T03:56:33.372Z,15.00
2017-07-28T03:59:11.056Z,15.00
2017-07-28T04:01:38.540Z,15.00
2017-07-28T04:04:12.350Z,15.00
2017-07-28T04:06:39.856Z,15.00
2017-07-28T04:09:07.350Z,15.00
2017-07-28T04:11:34.886Z,15.00
2017-07-28T04:14:03.187Z,15.00
2017-07-28T04:16:31.026Z,15.00
2017-07-28T04:19:01.011Z,15.10
2017-07-28T04:21:28.512Z,15.00
2017-07-28T04:23:56.023Z,15.10
2017-07-28T04:26:30.432Z,15.10
2017-07-28T04:28:58.268Z,15.20
2017-07-28T04:31:25.766Z,15.20
2017-07-28T04:33:53.246Z,15.40
2017-07-28T04:36:20.754Z,15.40
2017-07-28T04:38:51.814Z,15.50
2017-07-28T04:41:22.464Z,15.60
2017-07-28T04:43:49.949Z,15.60
2017-07-28T04:46:18.539Z,15.70
2017-07-28T04:48:51.933Z,15.70
2017-07-28T04:51:20.468Z,15.90
2017-07-28T04:53:47.958Z,15.80
2017-07-28T04:56:22.172Z,15.90
2017-07-28T04:58:49.689Z,15.90
2017-07-28T05:01:17.187Z,15.90
2017-07-28T05:03:50.727Z,15.90
2017-07-28T05:06:19.006Z,16.10
2017-07-28T05:08:46.503Z,16.00
2017-07-28T05:11:20.710Z,16.10
2017-07-28T05:13:48.514Z,16.10
2017-07-28T05:16:21.817Z,16.20
2017-07-28T05:18:52.980Z,16.30
2017-07-28T05:21:21.193Z,16.30
2017-07-28T05:23:48.717Z,16.40
2017-07-28T05:26:22.114Z,16.40
2017-07-28T05:28:49.612Z,16.40
2017-07-28T05:31:17.103Z,16.30
2017-07-28T05:33:51.446Z,16.20
2017-07-28T05:36:19.299Z,16.20
2017-07-28T05:38:46.787Z,16.30
2017-07-28T05:41:14.314Z,16.30
2017-07-28T05:43:42.916Z,16.30
2017-07-28T05:46:10.399Z,16.30
2017-07-28T05:48:37.890Z,16.40
2017-07-28T05:51:05.389Z,16.40
2017-07-28T05:53:32.893Z,16.50
2017-07-28T05:56:00.720Z,16.50
2017-07-28T05:58:31.684Z,16.60
2017-07-28T06:00:59.195Z,16.60
2017-07-28T06:03:32.582Z,16.70
2017-07-28T06:06:11.312Z,16.80
2017-07-28T06:08:38.812Z,16.70
2017-07-28T06:11:06.321Z,16.80
2017-07-28T06:13:43.617Z,16.90
2017-07-28T06:16:11.721Z,17.00
2017-07-28T06:18:39.238Z,17.10
2017-07-28T06:21:06.744Z,17.20
2017-07-28T06:23:40.486Z,17.30
2017-07-28T06:26:09.022Z,17.50
2017-07-28T06:28:42.903Z,17.40
2017-07-28T06:31:10.762Z,17.60
2017-07-28T06:33:38.338Z,17.80
2017-07-28T06:36:12.009Z,18.00
2017-07-28T06:38:41.591Z,18.20
2017-07-28T06:41:12.707Z,18.20
2017-07-28T06:43:40.195Z,18.40
2017-07-28T06:46:10.918Z,18.50
2017-07-28T06:48:38.458Z,18.60
2017-07-28T06:51:05.965Z,18.60
2017-07-28T06:53:33.781Z,18.70
2017-07-28T06:56:11.054Z,18.70
2017-07-28T06:58:38.925Z,18.80
2017-07-28T07:01:06.423Z,18.90
2017-07-28T07:03:33.980Z,19.00
2017-07-28T07:06:11.195Z,19.10
2017-07-28T07:08:40.997Z,19.30
2017-07-28T07:11:11.584Z,19.20
2017-07-28T07:13:39.091Z,19.30
2017-07-28T07:16:07.660Z,19.70
2017-07-28T07:18:41.025Z,19.60
2017-07-28T07:21:12.155Z,19.80
2017-07-28T07:23:39.662Z,19.90
2017-07-28T07:26:11.033Z,19.90
2017-07-28T07:28:41.997Z,20.00
2017-07-28T07:31:11.171Z,20.10
2017-07-28T07:33:41.915Z,20.20
2017-07-28T07:36:09.418Z,20.30
2017-07-28T07:38:36.899Z,20.30
2017-07-28T07:41:11.540Z,20.50
2017-07-28T07:43:39.077Z,20.50
2017-07-28T07:46:06.597Z,20.50
2017-07-28T07:48:34.116Z,20.60
2017-07-28T07:51:01.615Z,20.60
2017-07-28T07:53:33.030Z,20.70
2017-07-28T07:56:00.591Z,20.80
2017-07-28T07:58:28.080Z,20.80
2017-07-28T08:01:02.254Z,20.90
2017-07-28T08:03:29.738Z,21.10
2017-07-28T08:05:57.588Z,21.30
2017-07-28T08:08:25.073Z,21.30
2017-07-28T08:10:52.559Z,21.50
2017-07-28T08:13:21.397Z,21.60
2017-07-28T08:15:48.886Z,21.60
2017-07-28T08:18:16.413Z,21.70
2017-07-28T08:20:51.018Z,21.90
2017-07-28T08:23:19.742Z,22.00
2017-07-28T08:25:47.286Z,22.00
2017-07-28T08:28:14.772Z,22.00
2017-07-28T08:30:52.517Z,22.10
2017-07-28T08:33:30.946Z,22.40
2017-07-28T08:36:01.191Z,22.40
2017-07-28T08:38:32.435Z,22.30
2017-07-28T08:41:01.312Z,22.40
2017-07-28T08:43:32.555Z,22.30
2017-07-28T08:46:10.874Z,22.30
2017-07-28T08:48:38.443Z,22.20
2017-07-28T08:51:12.325Z,22.30
2017-07-28T08:53:40.836Z,22.10
2017-07-28T08:56:10.370Z,22.10
2017-07-28T08:58:37.876Z,22.00
2017-07-28T09:01:12.511Z,22.00
2017-07-28T09:03:41.620Z,21.90
2017-07-28T09:06:10.861Z,22.00
2017-07-28T09:08:41.743Z,22.00
2017-07-28T09:11:10.019Z,21.80
2017-07-28T09:13:37.530Z,21.80
2017-07-28T09:16:11.021Z,21.80
2017-07-28T09:18:38.527Z,21.90
2017-07-28T09:21:06.314Z,22.00
2017-07-28T09:23:40.819Z,22.10
2017-07-28T09:26:12.085Z,22.30
2017-07-28T09:28:39.608Z,22.40
2017-07-28T09:31:07.225Z,22.40
2017-07-28T09:33:41.600Z,22.40
2017-07-28T09:36:09.862Z,22.10
2017-07-28T09:38:40.788Z,22.10
2017-07-28T09:41:08.280Z,22.00
2017-07-28T09:43:36.529Z,22.00
2017-07-28T09:46:11.583Z,22.00
2017-07-28T09:48:42.192Z,22.10
2017-07-28T09:51:09.767Z,22.40
2017-07-28T09:53:38.073Z,23.20
2017-07-28T09:56:05.634Z,23.20
2017-07-28T09:58:33.502Z,23.50
2017-07-28T10:01:00.986Z,24.20
2017-07-28T10:03:32.147Z,24.80
2017-07-28T10:06:00.750Z,25.30
2017-07-28T10:08:28.253Z,25.20
2017-07-28T10:11:02.003Z,25.20
2017-07-28T10:13:32.640Z,25.50
2017-07-28T10:16:01.363Z,25.50
2017-07-28T10:18:29.235Z,25.60
2017-07-28T10:20:56.727Z,26.20
2017-07-28T10:23:30.967Z,26.50
2017-07-28T10:25:58.468Z,26.50
2017-07-28T10:28:32.302Z,26.30
2017-07-28T10:30:59.799Z,27.00
2017-07-28T10:33:33.491Z,26.80
2017-07-28T10:36:00.993Z,26.60
2017-07-28T10:38:28.557Z,26.90
2017-07-28T10:41:02.160Z,26.70
2017-07-28T10:43:31.000Z,26.20
2017-07-28T10:46:01.890Z,25.70
2017-07-28T10:48:31.035Z,25.70
2017-07-28T10:51:01.924Z,26.00
2017-07-28T10:53:31.244Z,26.20
2017-07-28T10:56:02.160Z,26.30
2017-07-28T10:58:31.465Z,26.30
2017-07-28T11:01:02.394Z,26.20
2017-07-28T11:03:30.661Z,25.90
2017-07-28T11:05:58.165Z,25.80
2017-07-28T11:08:25.671Z,26.10
2017-07-28T11:11:00.952Z,25.90
2017-07-28T11:13:28.459Z,25.60
2017-07-28T11:15:55.985Z,25.40
2017-07-28T11:18:30.906Z,25.20
2017-07-28T11:20:58.399Z,25.10
2017-07-28T11:23:32.204Z,25.00
2017-07-28T11:26:00.809Z,24.90
2017-07-28T11:28:31.360Z,24.80
2017-07-28T11:31:01.906Z,24.60
2017-07-28T11:33:29.400Z,24.50
2017-07-28T11:36:03.048Z,24.60
2017-07-28T11:38:31.587Z,24.60
2017-07-28T11:41:02.242Z,24.60
2017-07-28T11:43:30.863Z,24.20
2017-07-28T11:45:58.361Z,23.90
2017-07-28T11:48:32.207Z,23.80
2017-07-28T11:50:59.707Z,24.60
2017-07-28T11:53:27.199Z,25.50
2017-07-28T11:56:01.011Z,25.70
2017-07-28T11:58:28.508Z,25.70
2017-07-28T12:01:02.160Z,26.20
2017-07-28T12:03:29.652Z,26.50
2017-07-28T12:06:01.358Z,25.80
2017-07-28T12:08:28.850Z,25.70
2017-07-28T12:11:02.318Z,25.30
2017-07-28T12:13:30.136Z,25.10
2017-07-28T12:15:57.625Z,24.90
2017-07-28T12:18:31.356Z,25.40
2017-07-28T12:21:02.004Z,26.10
2017-07-28T12:23:32.876Z,26.70
2017-07-28T12:26:01.110Z,27.80
2017-07-28T12:28:31.739Z,28.40
2017-07-28T12:30:59.232Z,28.00
2017-07-28T12:33:31.102Z,27.90
2017-07-28T12:35:58.968Z,27.80
2017-07-28T12:38:32.974Z,28.30
2017-07-28T12:41:00.734Z,28.40
2017-07-28T12:43:28.228Z,28.70
2017-07-28T12:46:02.013Z,29.20
2017-07-28T12:48:29.497Z,29.90
2017-07-28T12:51:03.451Z,30.10
2017-07-28T12:53:30.954Z,30.40
2017-07-28T12:55:58.430Z,30.00
2017-07-28T12:58:31.921Z,29.80
2017-07-28T13:00:59.631Z,30.10
2017-07-28T13:03:28.155Z,30.30
2017-07-28T13:06:01.782Z,30.20
2017-07-28T13:08:32.924Z,29.30
2017-07-28T13:11:00.415Z,28.30
2017-07-28T13:13:32.059Z,27.00
2017-07-28T13:16:00.720Z,26.90
2017-07-28T13:18:31.251Z,27.10
2017-07-28T13:20:59.020Z,27.80
2017-07-28T13:23:32.379Z,28.60
2017-07-28T13:26:01.461Z,28.70
2017-07-28T13:28:28.956Z,28.90
2017-07-28T13:30:56.436Z,29.00
2017-07-28T13:33:30.889Z,29.00
2017-07-28T13:35:58.392Z,28.70
2017-07-28T13:38:32.231Z,28.60
2017-07-28T13:40:59.732Z,28.30
2017-07-28T13:43:27.292Z,27.70
2017-07-28T13:46:06.732Z,27.30
2017-07-28T13:48:34.216Z,27.20
2017-07-28T13:51:12.357Z,27.80
2017-07-28T13:53:39.981Z,28.00
2017-07-28T13:56:07.481Z,27.80
2017-07-28T13:58:40.882Z,27.70
2017-07-28T14:01:08.375Z,28.40
2017-07-28T14:03:35.883Z,29.20
2017-07-28T14:06:10.386Z,29.70
2017-07-28T14:08:38.219Z,30.00
2017-07-28T14:11:11.556Z,30.10
2017-07-28T14:13:42.751Z,29.50
2017-07-28T14:16:10.959Z,28.90
2017-07-28T14:18:41.610Z,28.10
2017-07-28T14:21:09.114Z,27.50
2017-07-28T14:23:42.613Z,27.50
2017-07-28T14:26:11.826Z,28.10
2017-07-28T14:28:39.315Z,28.80
2017-07-28T14:31:06.833Z,29.40
2017-07-28T14:33:34.342Z,29.00
2017-07-28T14:36:01.842Z,28.30
2017-07-28T14:38:29.719Z,28.60
2017-07-28T14:40:57.209Z,29.10
2017-07-28T14:43:24.697Z,29.60
2017-07-28T14:45:52.287Z,29.20
2017-07-28T14:48:20.538Z,27.70
2017-07-28T14:50:52.129Z,27.60
2017-07-28T14:53:19.637Z,27.00
2017-07-28T14:55:47.137Z,26.50
2017-07-28T14:58:21.543Z,25.70
2017-07-28T15:00:52.348Z,25.70
2017-07-28T15:03:19.860Z,25.70
2017-07-28T15:05:47.352Z,25.60
2017-07-28T15:08:21.304Z,25.50
2017-07-28T15:10:50.790Z,25.30
2017-07-28T15:13:18.277Z,25.20
2017-07-28T15:15:52.979Z,25.00
2017-07-28T15:18:21.495Z,24.90
2017-07-28T15:20:49.082Z,24.80
2017-07-28T15:23:22.790Z,24.60
2017-07-28T15:25:50.286Z,24.40
2017-07-28T15:28:17.780Z,24.30
2017-07-28T15:30:45.554Z,24.20
2017-07-28T15:33:20.888Z,24.10
2017-07-28T15:35:52.146Z,24.10
2017-07-28T15:38:19.660Z,24.10
2017-07-28T15:40:47.144Z,24.20
2017-07-28T15:43:20.672Z,24.20
2017-07-28T15:45:48.176Z,24.20
2017-07-28T15:48:15.972Z,24.20
2017-07-28T15:50:43.464Z,24.20
2017-07-28T15:53:10.968Z,24.20
2017-07-28T15:55:38.470Z,24.20
2017-07-28T15:58:05.972Z,24.30
2017-07-28T16:00:41.576Z,24.20
2017-07-28T16:03:12.152Z,24.30
2017-07-28T16:05:39.655Z,24.60
2017-07-28T16:08:07.168Z,24.90
2017-07-28T16:10:34.650Z,25.00
2017-07-28T16:13:10.760Z,25.00
2017-07-28T16:15:38.243Z,25.00
2017-07-28T16:18:05.770Z,24.90
2017-07-28T16:20:40.607Z,24.70
2017-07-28T16:23:08.094Z,24.60
2017-07-28T16:25:35.604Z,24.60
2017-07-28T16:28:11.208Z,24.70
2017-07-28T16:30:38.708Z,24.80
2017-07-28T16:33:12.631Z,25.00
2017-07-28T16:35:40.121Z,24.90
2017-07-28T16:38:07.595Z,24.80
2017-07-28T16:40:35.093Z,24.70
2017-07-28T16:43:11.042Z,24.80
2017-07-28T16:45:38.807Z,24.80
2017-07-28T16:48:12.315Z,24.90
2017-07-28T16:50:41.514Z,25.00
2017-07-28T16:53:09.022Z,25.00
2017-07-28T16:55:43.380Z,24.90
2017-07-28T16:58:20.624Z,24.80
2017-07-28T17:00:48.431Z,24.70
2017-07-28T17:03:15.920Z,24.60
2017-07-28T17:05:50.597Z,24.50
2017-07-28T17:08:18.116Z,24.50
2017-07-28T17:10:45.611Z,24.50
2017-07-28T17:13:14.801Z,24.50
2017-07-28T17:15:50.544Z,24.40
2017-07-28T17:18:21.400Z,24.30
2017-07-28T17:20:48.897Z,24.30
2017-07-28T17:23:22.455Z,24.10
2017-07-28T17:25:51.088Z,24.00
2017-07-28T17:28:22.094Z,23.90
2017-07-28T17:30:51.243Z,23.80
2017-07-28T17:33:18.780Z,23.80
2017-07-28T17:35:52.441Z,23.80
2017-07-28T17:38:20.701Z,23.90
2017-07-28T17:40:48.205Z,23.80
2017-07-28T17:43:21.412Z,23.80
2017-07-28T17:45:52.529Z,23.70
2017-07-28T17:48:20.020Z,23.60
2017-07-28T17:50:47.519Z,23.60
2017-07-28T17:53:15.027Z,23.50
2017-07-28T17:55:42.545Z,23.50
2017-07-28T17:58:11.076Z,23.40
2017-07-28T18:00:38.576Z,23.40
2017-07-28T18:03:12.770Z,23.30
2017-07-28T18:05:41.297Z,23.30
2017-07-28T18:08:11.890Z,23.30
2017-07-28T18:10:40.484Z,23.20
2017-07-28T18:13:08.108Z,23.20
2017-07-28T18:15:35.603Z,23.10
2017-07-28T18:18:10.828Z,23.10
2017-07-28T18:20:38.326Z,23.00
2017-07-28T18:23:06.921Z,22.90
2017-07-28T18:25:40.660Z,22.80
2017-07-28T18:28:21.498Z,22.70
2017-07-28T18:30:52.752Z,22.60
2017-07-28T18:33:20.243Z,22.70
2017-07-28T18:35:47.998Z,22.70
2017-07-28T18:38:21.355Z,22.60
2017-07-28T18:40:49.125Z,22.60
2017-07-28T18:43:22.645Z,22.60
2017-07-28T18:45:50.408Z,22.60
2017-07-28T18:48:17.904Z,22.60
2017-07-28T18:50:45.396Z,22.50
2017-07-28T18:53:21.088Z,22.50
2017-07-28T18:55:51.944Z,22.50
2017-07-28T18:58:19.721Z,22.50
2017-07-28T19:00:52.984Z,22.40
2017-07-28T19:03:21.118Z,22.50
2017-07-28T19:05:48.637Z,22.40
2017-07-28T19:08:16.124Z,22.40
2017-07-28T19:10:44.644Z,22.30
2017-07-28T19:13:20.743Z,22.20
2017-07-28T19:15:51.922Z,22.30
2017-07-28T19:18:21.079Z,22.30
2017-07-28T19:20:48.593Z,22.20
2017-07-28T19:23:16.406Z,22.10
2017-07-28T19:25:50.667Z,22.10
2017-07-28T19:28:18.524Z,22.10
2017-07-28T19:30:51.935Z,22.00
2017-07-28T19:33:19.710Z,22.00
2017-07-28T19:35:47.217Z,21.90
2017-07-28T19:38:20.911Z,21.80
2017-07-28T19:40:51.352Z,21.80
2017-07-28T19:43:22.235Z,21.70
2017-07-28T19:45:49.727Z,21.70
2017-07-28T19:48:17.269Z,21.70
2017-07-28T19:50:45.127Z,21.70
2017-07-28T19:53:21.004Z,21.60
2017-07-28T19:55:48.799Z,21.60
2017-07-28T19:58:23.025Z,21.60
2017-07-28T20:01:01.775Z,21.50
2017-07-28T20:03:32.253Z,21.50
2017-07-28T20:05:59.742Z,21.50
2017-07-28T20:08:27.272Z,21.50
2017-07-28T20:11:00.742Z,21.50
2017-07-28T20:13:31.407Z,21.50
2017-07-28T20:15:58.894Z,21.50
2017-07-28T20:18:26.698Z,21.50
2017-07-28T20:20:54.252Z,21.50
2017-07-28T20:23:21.750Z,21.50
2017-07-28T20:25:49.551Z,21.40
2017-07-28T20:28:20.924Z,21.40
2017-07-28T20:30:51.750Z,21.40
2017-07-28T20:33:20.894Z,21.40
2017-07-28T20:35:51.398Z,21.40
2017-07-28T20:38:19.218Z,21.40
2017-07-28T20:40:47.515Z,21.30
2017-07-28T20:43:15.095Z,21.30
2017-07-28T20:45:42.587Z,21.30
2017-07-28T20:48:11.389Z,21.30
2017-07-28T20:50:38.903Z,21.30
2017-07-28T20:53:12.371Z,21.20
2017-07-28T20:55:41.573Z,21.20
2017-07-28T20:58:12.599Z,21.10
2017-07-28T21:00:40.101Z,21.10
2017-07-28T21:03:10.654Z,21.10
2017-07-28T21:05:41.079Z,21.10
2017-07-28T21:08:11.723Z,21.10
2017-07-28T21:10:42.272Z,21.10
2017-07-28T21:13:10.166Z,21.10
2017-07-28T21:15:41.267Z,21.10
2017-07-28T21:18:12.130Z,21.10
2017-07-28T21:20:39.618Z,21.10
2017-07-28T21:23:07.123Z,21.10
2017-07-28T21:25:34.915Z,21.10
2017-07-28T21:28:02.406Z,21.10
2017-07-28T21:30:30.813Z,21.10
2017-07-28T21:33:01.596Z,21.10
2017-07-28T21:35:29.156Z,21.10
2017-07-28T21:37:56.677Z,21.00
2017-07-28T21:40:30.723Z,21.00
2017-07-28T21:42:58.287Z,21.00
2017-07-28T21:45:26.156Z,21.00
2017-07-28T21:47:53.737Z,21.00
2017-07-28T21:50:21.271Z,20.90
2017-07-28T21:52:48.825Z,20.80
2017-07-28T21:55:16.387Z,20.80
2017-07-28T21:57:44.155Z,20.80
2017-07-28T22:00:11.650Z,20.70
2017-07-28T22:02:39.168Z,20.70
2017-07-28T22:05:12.573Z,20.60
2017-07-28T22:07:41.427Z,20.60
2017-07-28T22:10:09.319Z,20.60
2017-07-28T22:12:43.425Z,20.50
2017-07-28T22:15:12.028Z,20.50
2017-07-28T22:17:40.756Z,20.40
2017-07-28T22:20:08.268Z,20.50
2017-07-28T22:22:41.977Z,20.50
2017-07-28T22:25:09.533Z,20.50
2017-07-28T22:27:37.087Z,20.50
2017-07-28T22:30:10.507Z,20.40
2017-07-28T22:32:38.008Z,20.50
2017-07-28T22:35:05.817Z,20.50
2017-07-28T22:37:41.039Z,20.40
2017-07-28T22:40:09.631Z,20.30
2017-07-28T22:42:41.458Z,20.40
2017-07-28T22:45:09.256Z,20.30
2017-07-28T22:47:36.818Z,20.30
2017-07-28T22:50:11.100Z,20.30
2017-07-28T22:52:38.586Z,20.20
2017-07-28T22:55:06.082Z,20.20
2017-07-28T22:57:40.607Z,20.30
2017-07-28T23:00:11.390Z,20.20
2017-07-28T23:02:38.892Z,20.20
2017-07-28T23:05:06.424Z,20.10
2017-07-28T23:07:35.011Z,20.10
2017-07-28T23:10:10.585Z,20.00
2017-07-28T23:12:38.351Z,20.00
2017-07-28T23:15:05.902Z,19.90
2017-07-28T23:17:40.608Z,19.90
2017-07-28T23:20:08.903Z,19.80
2017-07-28T23:22:36.391Z,19.70
2017-07-28T23:25:11.191Z,19.70
2017-07-28T23:27:38.734Z,19.70
2017-07-28T23:30:06.216Z,19.60
2017-07-28T23:32:33.730Z,19.60
2017-07-28T23:35:01.986Z,19.50
2017-07-28T23:37:29.790Z,19.50
2017-07-28T23:39:58.046Z,19.60
2017-07-28T23:42:25.528Z,19.50
2017-07-28T23:45:00.522Z,19.60
2017-07-28T23:47:28.011Z,19.60
2017-07-28T23:50:03.041Z,19.60
2017-07-28T23:52:41.344Z,19.50
2017-07-28T23:55:09.130Z,19.50
2017-07-28T23:57:42.515Z,19.50
